createdAt,value
2023-02-11T00:01:27.394Z,18.40
2023-02-11T00:03:55.141Z,18.60
2023-02-11T00:06:22.568Z,15.20
2023-02-11T00:08:49.496Z,17.30
2023-02-11T00:11:18.437Z,16.90
2023-02-11T00:13:46.722Z,14.90
2023-02-11T00:16:16.927Z,14.60
2023-02-11T00:18:44.147Z,15.90
2023-02-11T00:21:16.504Z,16.50
2023-02-11T00:23:44.082Z,16.30
2023-02-11T00:26:21.449Z,15.90
2023-02-11T00:28:49.944Z,17.40
2023-02-11T00:31:18.900Z,17.60
2023-02-11T00:33:46.577Z,18.30
2023-02-11T00:36:22.911Z,16.40
2023-02-11T00:38:51.998Z,16.90
2023-02-11T00:41:20.143Z,16.80
2023-02-11T00:43:47.706Z,15.50
2023-02-11T00:46:15.134Z,16.00
2023-02-11T00:48:42.202Z,15.20
2023-02-11T00:51:09.961Z,15.50
2023-02-11T00:53:37.697Z,15.60
2023-02-11T00:56:05.047Z,13.60
2023-02-11T00:58:31.769Z,15.50
2023-02-11T01:00:59.059Z,13.50
2023-02-11T01:03:26.189Z,14.10
2023-02-11T01:05:53.443Z,15.10
2023-02-11T01:08:20.291Z,14.70
2023-02-11T01:10:55.991Z,13.00
2023-02-11T01:13:22.975Z,14.90
2023-02-11T01:15:50.267Z,13.50
2023-02-11T01:18:17.580Z,13.10
2023-02-11T01:20:44.632Z,14.50
2023-02-11T01:23:11.702Z,14.80
2023-02-11T01:25:38.522Z,15.10
2023-02-11T01:28:05.725Z,14.90
2023-02-11T01:30:32.584Z,14.80
2023-02-11T01:32:59.410Z,14.00
2023-02-11T01:35:26.113Z,14.50
2023-02-11T01:37:52.934Z,14.80
2023-02-11T01:40:19.786Z,15.00
2023-02-11T01:42:49.404Z,14.60
2023-02-11T01:45:46.713Z,17.30
2023-02-11T01:48:18.196Z,16.60
2023-02-11T01:50:48.417Z,16.70
2023-02-11T01:53:31.536Z,15.00
2023-02-11T01:56:13.283Z,16.40
2023-02-11T01:58:42.496Z,15.70
2023-02-11T02:01:13.147Z,15.70
2023-02-11T02:03:43.966Z,15.10
2023-02-11T02:06:15.474Z,16.40
2023-02-11T02:08:57.123Z,16.00
2023-02-11T02:11:23.981Z,17.00
2023-02-11T02:13:50.910Z,15.80
2023-02-11T02:16:21.517Z,13.40
2023-02-11T02:19:03.472Z,13.40
2023-02-11T02:22:00.120Z,12.30
2023-02-11T02:24:48.874Z,11.80
2023-02-11T02:27:29.543Z,12.30
2023-02-11T02:30:01.963Z,13.50
2023-02-11T02:32:52.475Z,12.20
2023-02-11T02:35:57.912Z,12.10
2023-02-11T02:38:44.218Z,11.20
2023-02-11T02:41:14.271Z,12.80
2023-02-11T02:43:45.264Z,15.10
2023-02-11T02:46:13.160Z,12.50
2023-02-11T02:48:40.000Z,14.50
2023-02-11T02:51:29.647Z,14.10
2023-02-11T02:54:23.819Z,13.20
2023-02-11T02:57:13.416Z,12.40
2023-02-11T02:59:53.027Z,12.50
2023-02-11T03:02:40.515Z,14.60
2023-02-11T03:05:19.636Z,13.00
2023-02-11T03:08:00.040Z,14.20
2023-02-11T03:10:31.713Z,11.90
2023-02-11T03:12:59.905Z,14.00
2023-02-11T03:15:30.827Z,17.50
2023-02-11T03:18:00.747Z,15.40
2023-02-11T03:22:57.085Z,16.60
2023-02-11T03:25:30.506Z,16.40
2023-02-11T03:28:14.542Z,15.90
2023-02-11T03:31:09.596Z,14.20
2023-02-11T03:33:52.122Z,12.50
2023-02-11T03:36:24.526Z,13.70
2023-02-11T03:38:56.526Z,12.20
2023-02-11T03:41:24.997Z,13.20
2023-02-11T03:43:56.249Z,11.80
2023-02-11T03:46:37.702Z,11.30
2023-02-11T03:49:09.824Z,12.10
2023-02-11T03:51:37.816Z,13.10
2023-02-11T03:54:10.607Z,11.70
2023-02-11T03:56:44.173Z,12.10
2023-02-11T03:59:10.874Z,12.10
2023-02-11T04:01:37.601Z,12.20
2023-02-11T04:04:04.673Z,15.30
2023-02-11T04:06:31.417Z,12.70
2023-02-11T04:08:58.098Z,10.80
2023-02-11T04:11:24.955Z,12.30
2023-02-11T04:13:51.665Z,12.50
2023-02-11T04:16:18.397Z,12.50
2023-02-11T04:18:45.218Z,11.70
2023-02-11T04:21:12.825Z,13.40
2023-02-11T04:23:39.533Z,13.40
2023-02-11T04:26:06.786Z,14.10
2023-02-11T04:28:35.033Z,13.00
2023-02-11T04:31:02.116Z,13.30
2023-02-11T04:33:29.362Z,11.20
2023-02-11T04:35:56.104Z,12.20
2023-02-11T04:38:24.332Z,11.60
2023-02-11T04:40:51.704Z,10.40
2023-02-11T04:43:18.494Z,12.90
2023-02-11T04:45:45.246Z,10.70
2023-02-11T04:48:12.016Z,12.40
2023-02-11T04:50:38.766Z,11.40
2023-02-11T04:53:05.483Z,11.20
2023-02-11T04:55:32.285Z,10.40
2023-02-11T04:57:59.003Z,9.40
2023-02-11T05:00:25.702Z,11.00
2023-02-11T05:02:52.406Z,10.50
2023-02-11T05:05:19.240Z,10.80
2023-02-11T05:07:46.065Z,11.80
2023-02-11T05:10:12.709Z,9.90
2023-02-11T05:12:39.571Z,10.60
2023-02-11T05:15:06.645Z,11.00
2023-02-11T05:17:33.628Z,10.10
2023-02-11T05:20:00.407Z,9.70
2023-02-11T05:22:27.174Z,10.10
2023-02-11T05:24:54.421Z,10.90
2023-02-11T05:27:21.119Z,10.70
2023-02-11T05:29:47.812Z,10.10
2023-02-11T05:32:14.659Z,9.90
2023-02-11T05:34:41.363Z,10.10
2023-02-11T05:37:08.178Z,9.50
2023-02-11T05:39:35.295Z,8.90
2023-02-11T05:42:02.057Z,8.90
2023-02-11T05:44:28.748Z,9.30
2023-02-11T05:46:55.505Z,8.20
2023-02-11T05:49:22.248Z,10.30
2023-02-11T05:51:49.458Z,8.60
2023-02-11T05:54:16.904Z,9.40
2023-02-11T05:56:44.900Z,8.60
2023-02-11T05:59:14.603Z,8.90
2023-02-11T06:01:42.087Z,8.80
2023-02-11T06:04:09.021Z,10.00
2023-02-11T06:06:35.831Z,9.80
2023-02-11T06:09:03.152Z,8.60
2023-02-11T06:11:29.870Z,10.50
2023-02-11T06:13:56.731Z,10.40
2023-02-11T06:16:23.537Z,10.20
2023-02-11T06:18:50.260Z,10.70
2023-02-11T06:21:17.132Z,10.80
2023-02-11T06:23:44.144Z,12.20
2023-02-11T06:26:17.817Z,9.80
2023-02-11T06:28:44.758Z,9.70
2023-02-11T06:31:12.353Z,9.70
2023-02-11T06:33:39.424Z,11.80
2023-02-11T06:36:14.378Z,11.80
2023-02-11T06:38:41.226Z,12.50
2023-02-11T06:41:13.569Z,11.10
2023-02-11T06:43:41.354Z,10.70
2023-02-11T06:46:08.433Z,10.10
2023-02-11T06:48:36.168Z,9.90
2023-02-11T06:51:05.319Z,10.90
2023-02-11T06:53:35.547Z,10.10
2023-02-11T06:56:07.676Z,9.80
2023-02-11T06:58:34.485Z,9.90
2023-02-11T07:01:06.814Z,10.00
2023-02-11T07:03:38.683Z,10.80
2023-02-11T07:06:08.160Z,9.00
2023-02-11T07:08:36.976Z,9.60
2023-02-11T07:11:17.659Z,9.30
2023-02-11T07:13:44.368Z,9.00
2023-02-11T07:16:14.748Z,9.60
2023-02-11T07:18:42.148Z,9.40
2023-02-11T07:21:11.183Z,10.40
2023-02-11T07:23:39.653Z,11.40
2023-02-11T07:26:12.690Z,9.50
2023-02-11T07:28:40.601Z,10.70
2023-02-11T07:31:13.493Z,10.20
2023-02-11T07:33:40.994Z,9.10
2023-02-11T07:36:10.267Z,9.90
2023-02-11T07:38:37.655Z,9.70
2023-02-11T07:41:07.533Z,10.30
2023-02-11T07:46:09.779Z,10.10
2023-02-11T07:48:36.597Z,10.80
2023-02-11T07:51:08.496Z,8.50
2023-02-11T07:53:35.261Z,9.90
2023-02-11T07:56:04.203Z,10.40
2023-02-11T07:58:31.425Z,10.90
2023-02-11T08:01:02.965Z,10.10
2023-02-11T08:03:30.256Z,9.40
2023-02-11T08:05:57.012Z,10.20
2023-02-11T08:08:27.905Z,11.00
2023-02-11T08:10:54.753Z,10.40
2023-02-11T08:13:21.531Z,11.50
2023-02-11T08:15:48.795Z,11.00
2023-02-11T08:18:15.721Z,10.80
2023-02-11T08:20:42.458Z,11.80
2023-02-11T08:23:09.498Z,11.40
2023-02-11T08:25:36.324Z,11.50
2023-02-11T08:28:03.103Z,10.30
2023-02-11T08:30:29.946Z,10.80
2023-02-11T08:32:56.808Z,11.00
2023-02-11T08:35:23.877Z,10.70
2023-02-11T08:37:50.682Z,10.20
2023-02-11T08:40:17.546Z,11.70
2023-02-11T08:42:44.354Z,10.30
2023-02-11T08:45:12.666Z,11.80
2023-02-11T08:47:40.073Z,11.10
2023-02-11T08:50:07.113Z,10.90
2023-02-11T08:52:33.868Z,11.40
2023-02-11T08:55:00.700Z,11.40
2023-02-11T08:57:27.871Z,10.90
2023-02-11T08:59:54.628Z,10.10
2023-02-11T09:02:21.484Z,11.00
2023-02-11T09:04:48.250Z,10.60
2023-02-11T09:07:14.940Z,11.50
2023-02-11T09:09:41.705Z,10.70
2023-02-11T09:12:08.423Z,10.30
2023-02-11T09:14:35.322Z,10.00
2023-02-11T09:17:02.233Z,10.00
2023-02-11T09:19:29.012Z,11.60
2023-02-11T09:21:55.809Z,10.40
2023-02-11T09:24:22.604Z,10.40
2023-02-11T09:26:49.805Z,10.70
2023-02-11T09:29:16.838Z,10.50
2023-02-11T09:31:43.826Z,10.50
2023-02-11T09:34:11.722Z,10.30
2023-02-11T09:36:41.281Z,9.80
2023-02-11T09:39:17.432Z,11.20
2023-02-11T09:42:04.390Z,10.10
2023-02-11T09:44:36.518Z,11.00
2023-02-11T09:47:07.790Z,10.10
2023-02-11T09:49:44.398Z,11.20
2023-02-11T09:52:28.837Z,9.80
2023-02-11T09:54:58.581Z,11.80
2023-02-11T09:57:43.696Z,10.00
2023-02-11T10:00:42.703Z,11.80
2023-02-11T10:03:49.112Z,12.00
2023-02-11T10:06:29.864Z,10.40
2023-02-11T10:09:05.513Z,11.20
2023-02-11T10:11:42.366Z,12.00
2023-02-11T10:14:25.783Z,11.60
2023-02-11T10:17:21.846Z,10.80
2023-02-11T10:20:20.684Z,11.70
2023-02-11T10:22:50.589Z,11.20
2023-02-11T10:27:55.616Z,9.60
2023-02-11T10:30:26.612Z,10.90
2023-02-11T10:33:02.487Z,11.10
2023-02-11T10:35:29.235Z,11.50
2023-02-11T10:37:56.345Z,11.10
2023-02-11T10:40:26.038Z,10.70
2023-02-11T10:42:56.291Z,10.40
2023-02-11T10:45:25.827Z,9.50
2023-02-11T10:47:53.414Z,12.70
2023-02-11T10:50:24.878Z,10.70
2023-02-11T10:52:51.847Z,11.70
2023-02-11T10:55:18.769Z,11.60
2023-02-11T10:57:58.061Z,11.50
2023-02-11T11:00:34.263Z,11.80
2023-02-11T11:03:01.992Z,11.40
2023-02-11T11:05:35.726Z,10.80
2023-02-11T11:08:06.653Z,11.50
2023-02-11T11:10:43.549Z,11.10
2023-02-11T11:13:24.239Z,11.30
2023-02-11T11:16:15.383Z,11.10
2023-02-11T11:18:44.967Z,11.20
2023-02-11T11:21:33.716Z,11.90
2023-02-11T11:24:03.464Z,13.00
2023-02-11T11:26:43.468Z,11.30
2023-02-11T11:29:27.040Z,11.10
2023-02-11T11:31:58.138Z,11.70
2023-02-11T11:34:43.566Z,11.60
2023-02-11T11:37:30.363Z,12.30
2023-02-11T11:40:02.603Z,11.30
2023-02-11T11:42:38.208Z,11.10
2023-02-11T11:45:25.997Z,11.10
2023-02-11T11:48:05.309Z,11.00
2023-02-11T11:50:44.327Z,11.30
2023-02-11T11:53:16.554Z,11.50
2023-02-11T11:55:59.764Z,11.50
2023-02-11T11:58:30.929Z,12.60
2023-02-11T12:00:57.686Z,11.50
2023-02-11T12:03:36.710Z,11.20
2023-02-11T12:06:03.719Z,11.30
2023-02-11T12:08:43.508Z,10.80
2023-02-11T12:13:59.257Z,10.40
2023-02-11T12:16:49.365Z,12.60
2023-02-11T12:19:44.121Z,11.70
2023-02-11T12:22:38.720Z,11.00
2023-02-11T12:25:19.429Z,13.50
2023-02-11T12:28:04.955Z,13.40
2023-02-11T12:30:34.738Z,12.40
2023-02-11T12:35:56.820Z,14.00
2023-02-11T12:38:52.848Z,13.50
2023-02-11T12:41:52.115Z,13.00
2023-02-11T12:44:56.471Z,13.70
2023-02-11T12:47:39.765Z,12.80
2023-02-11T12:50:30.330Z,16.30
2023-02-11T12:53:26.947Z,14.70
2023-02-11T12:56:05.433Z,12.70
2023-02-11T12:58:44.971Z,15.40
2023-02-11T13:01:18.357Z,14.90
2023-02-11T13:04:40.760Z,13.80
2023-02-11T13:07:19.902Z,12.90
2023-02-11T13:09:55.665Z,12.00
2023-02-11T13:12:38.146Z,12.50
2023-02-11T13:15:13.056Z,12.30
2023-02-11T13:18:01.246Z,14.90
2023-02-11T13:20:54.201Z,12.20
2023-02-11T13:23:34.813Z,13.00
2023-02-11T13:26:21.636Z,14.10
2023-02-11T13:29:06.977Z,13.20
2023-02-11T13:31:33.794Z,12.40
2023-02-11T13:34:01.137Z,14.20
2023-02-11T13:36:33.556Z,14.00
2023-02-11T13:39:03.760Z,13.70
2023-02-11T13:41:30.455Z,12.80
2023-02-11T13:44:04.940Z,13.20
2023-02-11T13:46:49.927Z,12.30
2023-02-11T13:49:33.523Z,13.40
2023-02-11T13:52:03.045Z,14.00
2023-02-11T13:54:38.309Z,13.90
2023-02-11T13:57:30.780Z,13.50
2023-02-11T14:00:02.281Z,14.60
2023-02-11T14:02:48.176Z,12.20
2023-02-11T14:05:40.984Z,14.80
2023-02-11T14:08:21.728Z,14.20
2023-02-11T14:10:51.327Z,14.20
2023-02-11T14:15:49.205Z,12.20
2023-02-11T14:18:43.968Z,13.50
2023-02-11T14:21:17.777Z,13.20
2023-02-11T14:23:46.265Z,14.00
2023-02-11T14:26:22.118Z,13.20
2023-02-11T14:29:14.763Z,15.40
2023-02-11T14:31:49.538Z,12.50
2023-02-11T14:34:39.484Z,13.00
2023-02-11T14:39:52.884Z,12.30
2023-02-11T14:42:22.774Z,12.40
2023-02-11T14:47:23.564Z,13.20
2023-02-11T14:49:50.820Z,14.30
2023-02-11T14:52:28.709Z,14.60
2023-02-11T14:55:17.799Z,14.20
2023-02-11T14:57:45.988Z,14.20
2023-02-11T15:00:20.311Z,14.50
2023-02-11T15:02:47.772Z,13.70
2023-02-11T15:05:29.230Z,15.10
2023-02-11T15:08:02.091Z,14.70
2023-02-11T15:10:36.243Z,12.60
2023-02-11T15:13:04.994Z,13.10
2023-02-11T15:15:33.470Z,13.40
2023-02-11T15:18:03.003Z,16.00
2023-02-11T15:20:32.775Z,13.80
2023-02-11T15:23:03.156Z,14.20
2023-02-11T15:25:32.381Z,16.10
2023-02-11T15:28:01.049Z,15.50
2023-02-11T15:30:32.139Z,18.40
2023-02-11T15:33:03.219Z,16.30
2023-02-11T15:35:35.255Z,17.90
2023-02-11T15:38:02.284Z,18.20
2023-02-11T15:40:34.795Z,19.60
2023-02-11T15:43:04.345Z,19.40
2023-02-11T15:45:35.121Z,21.40
2023-02-11T15:48:15.765Z,23.00
2023-02-11T15:50:49.239Z,22.80
2023-02-11T15:53:30.691Z,21.60
2023-02-11T15:56:17.327Z,19.80
2023-02-11T15:58:47.858Z,22.80
2023-02-11T16:01:15.062Z,20.40
2023-02-11T16:03:43.509Z,20.80
2023-02-11T16:06:17.997Z,19.30
2023-02-11T16:08:57.535Z,17.70
2023-02-11T16:11:31.929Z,20.80
2023-02-11T16:14:00.731Z,19.80
2023-02-11T16:16:34.061Z,19.50
2023-02-11T16:19:06.072Z,17.70
2023-02-11T16:21:45.510Z,18.30
2023-02-11T16:24:28.076Z,17.70
2023-02-11T16:27:00.771Z,19.90
2023-02-11T16:29:30.411Z,21.50
2023-02-11T16:32:21.656Z,20.10
2023-02-11T16:34:49.242Z,22.70
2023-02-11T16:37:16.774Z,22.20
2023-02-11T16:39:43.739Z,23.20
2023-02-11T16:42:12.306Z,22.00
2023-02-11T16:44:40.611Z,20.70
2023-02-11T16:47:15.070Z,21.20
2023-02-11T16:49:43.052Z,20.60
2023-02-11T16:52:14.732Z,20.50
2023-02-11T16:54:42.277Z,19.30
2023-02-11T16:57:18.294Z,18.10
2023-02-11T16:59:45.810Z,18.40
2023-02-11T17:02:25.596Z,19.80
2023-02-11T17:04:54.196Z,17.60
2023-02-11T17:07:21.081Z,20.20
2023-02-11T17:09:47.822Z,18.40
2023-02-11T17:12:14.761Z,19.50
2023-02-11T17:14:41.479Z,19.40
2023-02-11T17:17:09.921Z,21.90
2023-02-11T17:19:37.833Z,20.80
2023-02-11T17:22:05.122Z,21.00
2023-02-11T17:24:32.209Z,20.80
2023-02-11T17:26:59.229Z,21.90
2023-02-11T17:29:26.431Z,21.50
2023-02-11T17:31:54.204Z,20.70
2023-02-11T17:34:22.546Z,21.10
2023-02-11T17:36:49.959Z,20.00
2023-02-11T17:39:16.799Z,18.80
2023-02-11T17:41:43.660Z,19.90
2023-02-11T17:44:16.403Z,18.00
2023-02-11T17:46:43.857Z,19.10
2023-02-11T17:49:12.202Z,18.40
2023-02-11T17:51:40.359Z,21.60
2023-02-11T17:54:11.178Z,21.40
2023-02-11T17:56:38.545Z,20.90
2023-02-11T17:59:08.469Z,19.60
2023-02-11T18:01:37.331Z,17.60
2023-02-11T18:04:05.137Z,17.30
2023-02-11T18:06:33.895Z,18.30
2023-02-11T18:09:02.615Z,18.00
2023-02-11T18:11:30.811Z,16.70
2023-02-11T18:14:02.598Z,17.80
2023-02-11T18:16:30.663Z,17.40
2023-02-11T18:18:58.983Z,17.90
2023-02-11T18:21:26.406Z,21.90
2023-02-11T18:23:53.777Z,20.60
2023-02-11T18:26:22.210Z,16.20
2023-02-11T18:28:49.071Z,16.10
2023-02-11T18:31:16.046Z,16.70
2023-02-11T18:33:43.756Z,16.40
2023-02-11T18:36:13.830Z,16.10
2023-02-11T18:38:41.988Z,16.10
2023-02-11T18:41:08.808Z,17.10
2023-02-11T18:43:36.376Z,15.80
2023-02-11T18:46:07.798Z,15.90
2023-02-11T18:48:35.120Z,17.40
2023-02-11T18:51:02.059Z,17.10
2023-02-11T18:53:28.778Z,16.20
2023-02-11T18:55:55.829Z,17.60
2023-02-11T18:58:22.652Z,17.10
2023-02-11T19:00:50.030Z,16.10
2023-02-11T19:03:17.326Z,17.10
2023-02-11T19:05:49.795Z,16.20
2023-02-11T19:08:17.496Z,16.30
2023-02-11T19:10:47.016Z,17.60
2023-02-11T19:13:14.418Z,17.50
2023-02-11T19:15:45.663Z,16.80
2023-02-11T19:18:14.331Z,15.30
2023-02-11T19:20:43.228Z,15.90
2023-02-11T19:23:11.014Z,16.30
2023-02-11T19:25:44.533Z,15.20
2023-02-11T19:28:11.377Z,17.10
2023-02-11T19:30:38.346Z,14.90
2023-02-11T19:33:05.582Z,16.70
2023-02-11T19:35:36.278Z,17.50
2023-02-11T19:40:31.591Z,16.30
2023-02-11T19:42:58.604Z,16.60
2023-02-11T19:45:27.047Z,18.40
2023-02-11T19:47:57.736Z,16.50
2023-02-11T19:50:25.186Z,16.10
2023-02-11T19:52:51.982Z,16.10
2023-02-11T19:55:18.822Z,16.70
2023-02-11T19:57:45.688Z,15.70
2023-02-11T20:00:13.032Z,16.30
2023-02-11T20:02:40.669Z,16.60
2023-02-11T20:05:07.778Z,16.10
2023-02-11T20:07:35.037Z,16.70
2023-02-11T20:10:02.119Z,17.00
2023-02-11T20:12:28.943Z,15.40
2023-02-11T20:14:55.764Z,17.00
2023-02-11T20:17:22.546Z,16.20
2023-02-11T20:19:49.229Z,16.30
2023-02-11T20:22:16.083Z,16.90
2023-02-11T20:24:42.910Z,15.90
2023-02-11T20:27:11.536Z,16.00
2023-02-11T20:29:39.380Z,17.00
2023-02-11T20:32:07.673Z,17.40
2023-02-11T20:34:34.806Z,17.00
2023-02-11T20:37:02.284Z,15.20
2023-02-11T20:39:30.226Z,17.60
2023-02-11T20:41:58.225Z,16.30
2023-02-11T20:44:25.400Z,17.10
2023-02-11T20:46:54.450Z,18.40
2023-02-11T20:49:24.097Z,16.50
2023-02-11T20:51:54.017Z,17.10
2023-02-11T20:54:22.455Z,17.30
2023-02-11T20:56:51.312Z,16.70
2023-02-11T20:59:19.369Z,17.70
2023-02-11T21:01:49.171Z,17.00
2023-02-11T21:04:19.949Z,18.50
2023-02-11T21:06:49.329Z,17.50
2023-02-11T21:09:22.162Z,17.10
2023-02-11T21:11:51.572Z,17.50
2023-02-11T21:14:19.138Z,18.30
2023-02-11T21:16:47.423Z,18.40
2023-02-11T21:19:14.655Z,18.80
2023-02-11T21:21:41.942Z,19.30
2023-02-11T21:24:10.255Z,19.90
2023-02-11T21:26:37.533Z,18.70
2023-02-11T21:29:06.190Z,20.00
2023-02-11T21:31:34.463Z,20.60
2023-02-11T21:34:01.823Z,20.30
2023-02-11T21:36:30.131Z,20.90
2023-02-11T21:38:57.032Z,20.60
2023-02-11T21:41:25.081Z,21.00
2023-02-11T21:43:52.884Z,21.70
2023-02-11T21:46:21.050Z,21.80
2023-02-11T21:48:49.017Z,22.50
2023-02-11T21:51:19.137Z,20.40
2023-02-11T21:53:46.244Z,20.10
2023-02-11T21:56:16.039Z,22.20
2023-02-11T22:01:21.566Z,20.00
2023-02-11T22:03:48.499Z,23.10
2023-02-11T22:06:21.335Z,22.10
2023-02-11T22:08:49.736Z,23.40
2023-02-11T22:11:17.053Z,23.00
2023-02-11T22:13:44.681Z,21.40
2023-02-11T22:16:14.792Z,22.30
2023-02-11T22:18:42.289Z,22.20
2023-02-11T22:21:17.110Z,23.20
2023-02-11T22:23:44.311Z,23.80
2023-02-11T22:26:15.023Z,23.50
2023-02-11T22:28:42.858Z,22.70
2023-02-11T22:31:18.010Z,22.10
2023-02-11T22:33:45.452Z,23.80
2023-02-11T22:36:34.700Z,23.60
2023-02-11T22:39:09.187Z,22.40
2023-02-11T22:41:35.915Z,24.60
2023-02-11T22:44:02.764Z,23.30
2023-02-11T22:46:30.035Z,23.10
2023-02-11T22:48:56.972Z,24.60
2023-02-11T22:51:26.937Z,24.20
2023-02-11T22:53:56.100Z,24.40
2023-02-11T22:56:24.420Z,24.50
2023-02-11T22:58:52.249Z,23.50
2023-02-11T23:01:19.949Z,23.90
2023-02-11T23:03:46.824Z,24.20
2023-02-11T23:06:13.673Z,25.00
2023-02-11T23:08:42.992Z,22.60
2023-02-11T23:11:17.071Z,24.30
2023-02-11T23:13:45.608Z,22.10
2023-02-11T23:16:17.389Z,22.80
2023-02-11T23:18:46.457Z,22.70
2023-02-11T23:21:29.227Z,25.60
2023-02-11T23:23:58.689Z,24.10
2023-02-11T23:26:26.423Z,21.10
2023-02-11T23:28:53.510Z,23.10
2023-02-11T23:31:23.880Z,22.80
2023-02-11T23:33:51.273Z,24.00
2023-02-11T23:36:19.527Z,26.30
2023-02-11T23:38:46.705Z,24.90
2023-02-11T23:41:14.272Z,23.90
2023-02-11T23:43:41.433Z,24.20
2023-02-11T23:46:09.380Z,22.20
2023-02-11T23:48:36.683Z,23.90
2023-02-11T23:51:04.405Z,22.90
2023-02-11T23:53:31.185Z,21.70
2023-02-11T23:55:58.476Z,20.60
2023-02-11T23:58:25.274Z,21.50
